integrated web briefing

Basic information
Name Chopin Airport
ICAO EPWA
IATA WAW
Latitude N52° 9.95'
Longitude E20° 58.03'
Runways 11/29 | 2800m x 50m
15/33 | 3690m x 60m
Elevation 362.0ft

Arrivals
Callsign From
LOT2LKLZIB
LOT3908EPKK
LOT433EGLL
ENT7354LCPH
APN108LKJFK
LOT39CMDPC

Departures
Callsign To
LOT35TEPKK
ENT3LKPR

ATC Bookings
Callsign Time [UTC]
EPWA_TWR 18:00 - 20:00
EPWA_S_APP 18:00 - 21:00

Stands
Number Occupied by:

Pilot Briefing

Metar

EPWA 251900Z 25005KT CAVOK 16/14 Q1017 NOSIG


Runways
Runway Course Dimensions Equipment Surface
11
109° 2800m x 50m ILS CAT II, PAPI 3° CONCRETE / ASPHALT
15
147° 3690m x 60m PAPI 3.5° CONCRETE
29
289° 2800m x 50m PAPI 3.5° CONCRETE / ASPHALT
33
327° 3690m x 60m ILS CAT IIIa, PAPI 3° CONCRETE

NAV Aids
Name Type Frequency / Course
OKC VOR/DME 113.45
WAR VOR/DME 114.90
WAS ILS CAT II 109.90 / 109°
WA ILS CAT IIIa 110.30 / 327°

Air Traffic Control
Callsign Name Frequency
EPWA_DEL Okecie Delivery 121.600 MHz
EPWA_GND Okecie Ground 121.900 MHz
EPWA_TWR Okecie Tower 118.300 MHz
EPWA_S_APP Warsaw Approach (main) 128.800 MHz
EPWA_N_APP Warsaw Approach 125.050 MHz
EPWA_F_APP Warsaw Director 129.370 MHz
EPWW_S_CTR Warszawa Radar (main) 125.450 MHz
EPWW_N_CTR Warszawa Radar 130.670 MHz
EPWW_W_CTR Warszawa Radar 134.870 MHz